Latest Weather Observations for Paraburdoo

IDW60801

Issued at 12:43 pm WST Tuesday 10 December 2019 (issued every 10 minutes, with the page automatically refreshed every 10 minutes)

About weather observations | Map of weather stations | Latest weather observations for WA | Other Formats
Station Details ID: 007185 Name: PARABURDOO AERO Lat: -23.17 Lon: 117.75 Height: 423.7 m
Data from the previous 72 hours. | See also: Recent months at Paraburdoo
Date/Time
WST
Temp
°C
App
Temp
°C
Dew
Point
°C
Rel
Hum
%
Delta-T
°C
Wind Press
QNH
hPa
Press
MSL
hPa
Rain since
9am
mm
Dir  Spd
km/h
Gust
km/h
Spd
kts
Gust
kts
10/12:30pm 42.6 38.6 3.1 9 21.8 SSW 13 28 7 15 1009.4 1005.8 0.0
10/12:00pm 41.8 37.0 2.5 9 21.4 NNW 17 30 9 16 1009.7 1006.1 0.0
10/11:30am 42.4 37.4 4.4 10 21.3 ENE 20 37 11 20 1010.1 1006.5 0.0
10/11:00am 42.4 36.2 4.4 10 21.3 ENE 26 39 14 21 1010.4 1006.8 0.0
10/10:30am 41.0 33.7 4.7 11 20.3 NE 32 43 17 23 1010.6 1007.0 0.0
10/10:00am 40.6 32.7 4.4 11 20.1 NE 35 50 19 27 1010.7 1007.1 0.0
10/09:30am 40.0 31.9 5.2 12 19.5 NE 37 50 20 27 1010.7 1007.1 0.0
10/09:14am 39.6 30.7 4.9 12 19.3 N 41 56 22 30 1010.8 1007.2 0.0
10/09:00am 40.1 30.9 5.3 12 19.6 N 43 56 23 30 1010.7 1007.1 0.0
10/08:53am 39.5 31.3 4.8 12 19.3 N 37 54 20 29 1010.6 1007.0 0.0
10/08:30am 38.6 32.7 4.1 12 18.9 N 24 35 13 19 1010.6 1007.0 0.0
10/08:00am 36.6 30.9 2.6 12 18.0 NE 22 32 12 17 1010.8 1007.2 0.0
10/07:30am 35.4 30.8 1.7 12 17.5 ENE 15 19 8 10 1010.8 1007.2 0.0
10/07:00am 32.9 29.7 0.9 13 16.2 NE 7 11 4 6 1010.6 1007.0 0.0
10/06:30am 30.8 27.3 1.2 15 14.8 NE 9 13 5 7 1010.5 1006.9 0.0
10/06:00am 27.9 23.5 0.6 17 13.3 NE 13 15 7 8 1010.2 1006.6 0.0
10/05:30am 26.6 22.3 1.1 19 12.4 ENE 13 17 7 9 1010.1 1006.5 0.0
10/05:00am 25.2 22.0 0.7 20 11.7 ESE 7 11 4 6 1009.8 1006.2 0.0
10/04:30am 25.9 21.9 0.5 19 12.1 ESE 11 13 6 7 1009.3 1005.7 0.0
10/04:00am 26.5 24.6 0.3 18 12.5 CALM 0 0 0 0 1009.1 1005.5 0.0
10/03:30am 26.7 24.8 0.4 18 12.6 CALM 0 0 0 0 1008.9 1005.2 0.0
10/03:00am 29.0 25.9 1.5 17 13.7 ESE 7 11 4 6 1009.0 1005.3 0.0
10/02:30am 30.4 26.5 0.9 15 14.6 W 11 15 6 8 1008.7 1005.0 0.0
10/02:00am 30.5 25.8 1.0 15 14.7 W 15 17 8 9 1008.9 1005.2 0.0
10/01:30am 31.5 27.0 -0.2 13 15.5 W 13 15 7 8 1009.3 1005.7 0.0
10/01:00am 33.3 27.2 0.1 12 16.6 W 22 28 12 15 1009.4 1005.8 0.0
10/12:30am 32.6 27.5 -1.7 11 16.5 NW 15 20 8 11 1009.7 1006.1 0.0
10/12:00am 32.5 27.8 -1.7 11 16.5 NNW 13 15 7 8 1009.6 1006.0 0.0
 
Date/Time
WST
Temp
°C
App
Temp
°C
Dew
Point
°C
Rel
Hum
%
Delta-T
°C
Wind Press
QNH
hPa
Press
MSL
hPa
Rain since
9am
mm
Dir  Spd
km/h
Gust
km/h
Spd
kts
Gust
kts
09/11:30pm 32.7 29.0 -2.9 10 16.8 SSE 7 13 4 7 1009.7 1006.1 0.0
09/11:00pm 35.1 31.6 -1.1 10 17.9 SSE 7 9 4 5 1009.9 1006.3 0.0
09/10:30pm 34.5 29.8 -1.5 10 17.6 SSE 13 13 7 7 1010.1 1006.5 0.0
09/10:00pm 36.0 32.2 -0.4 10 18.3 SSE 9 11 5 6 1010.0 1006.4 0.0
09/09:30pm 35.9 32.5 -0.5 10 18.3 SSE 7 11 4 6 1009.9 1006.3 0.0
09/09:00pm 36.8 32.2 -1.2 9 19.0 SSE 13 15 7 8 1009.7 1006.1 0.0
09/08:30pm 37.7 33.9 -0.6 9 19.4 SSE 9 13 5 7 1009.5 1005.9 0.0
09/08:00pm 38.6 33.4 0.1 9 19.9 S 17 22 9 12 1009.3 1005.7 0.0
09/07:30pm 38.9 33.7 0.3 9 20.0 SSW 17 24 9 13 1009.2 1005.6 0.0
09/07:00pm 39.6 35.0 -0.8 8 20.7 SW 13 19 7 10 1008.8 1005.1 0.0
09/06:30pm 40.4 36.3 -0.2 8 21.0 WSW 11 19 6 10 1008.4 1004.8 0.0
09/06:00pm 41.7 38.8 -1.1 7 22.1 W 4 7 2 4 1008.2 1004.6 0.0
09/05:30pm 41.3 37.4 -1.4 7 21.8 W 9 15 5 8 1008.2 1004.6 0.0
09/05:00pm 41.1 36.4 -1.5 7 21.8 ESE 13 19 7 10 1008.1 1004.5 0.0
09/04:30pm 41.2 36.4 0.4 8 21.4 SSW 15 22 8 12 1008.1 1004.5 0.0
09/04:00pm 41.2 37.2 0.4 8 21.5 N 11 19 6 10 1008.3 1004.7 0.0
09/03:30pm 40.9 36.9 0.2 8 21.3 NNW 11 26 6 14 1008.7 1005.0 0.0
09/03:00pm 41.1 37.1 0.3 8 21.4 NNW 11 19 6 10 1009.1 1005.5 0.0
09/02:30pm 40.9 35.3 0.2 8 21.3 ESE 19 32 10 17 1009.3 1005.7 0.0
09/02:00pm 40.4 37.3 1.4 9 20.7 ENE 7 15 4 8 1009.6 1006.0 0.0
09/01:30pm 40.2 36.3 1.3 9 20.6 N 11 20 6 11 1010.0 1006.4 0.0
09/01:00pm 40.5 35.9 1.5 9 20.8 E 15 35 8 19 1010.6 1007.0 0.0
09/12:30pm 39.7 35.2 2.4 10 20.0 SE 15 28 8 15 1011.0 1007.4 0.0
09/12:00pm 39.6 35.9 2.3 10 20.0 E 11 20 6 11 1011.5 1007.9 0.0
09/11:30am 37.7 33.6 2.2 11 18.8 E 13 24 7 13 1011.9 1008.3 0.0
09/11:00am 37.7 32.5 2.2 11 18.8 SE 19 32 10 17 1012.5 1008.9 0.0
09/10:30am 37.0 32.1 1.7 11 18.5 SE 17 28 9 15 1012.8 1009.2 0.0
09/10:00am 37.0 31.9 2.9 12 18.2 ESE 19 32 10 17 1013.0 1009.4 0.0
09/09:30am 36.2 31.3 2.3 12 17.8 ESE 17 28 9 15 1013.2 1009.6 0.0
09/09:00am 35.1 29.7 2.6 13 17.1 ESE 20 26 11 14 1013.2 1009.6 0.0
09/08:30am 34.1 28.8 1.8 13 16.6 E 19 24 10 13 1013.6 1010.0 0.0
09/08:00am 33.3 27.5 2.2 14 16.1 E 22 32 12 17 1013.6 1010.0 0.0
09/07:30am 32.1 26.9 2.2 15 15.3 E 19 28 10 15 1013.3 1009.8 0.0
09/07:00am 31.1 26.6 2.3 16 14.7 ENE 15 20 8 11 1013.2 1009.6 0.0
09/06:30am 30.1 26.8 2.4 17 14.1 SSE 9 13 5 7 1013.1 1009.5 0.0
09/06:00am 26.9 25.0 2.7 21 12.1 SSE 2 7 1 4 1012.9 1009.3 0.0
09/05:30am 24.2 21.9 0.5 21 11.2 SSE 2 6 1 3 1012.7 1009.1 0.0
09/05:00am 24.9 23.2 1.7 22 11.3 CALM 0 2 0 1 1012.5 1008.9 0.0
09/04:30am 24.7 21.4 0.3 20 11.5 SSE 7 9 4 5 1012.4 1008.8 0.0
09/04:00am 26.4 22.8 0.9 19 12.3 SSE 9 13 5 7 1012.3 1008.7 0.0
09/03:30am 28.1 24.4 2.3 19 12.9 SSE 11 15 6 8 1012.2 1008.6 0.0
09/03:00am 28.4 24.6 1.8 18 13.2 SSE 11 15 6 8 1012.1 1008.5 0.0
09/02:30am 28.7 25.0 2.1 18 13.3 S 11 20 6 11 1012.1 1008.5 0.0
09/02:00am 29.4 25.2 1.8 17 13.8 S 13 20 7 11 1011.9 1008.3 0.0
09/01:30am 29.4 25.5 1.0 16 14.0 S 11 15 6 8 1012.0 1008.4 0.0
09/01:00am 29.7 25.7 0.3 15 14.4 S 11 15 6 8 1012.2 1008.6 0.0
09/12:30am 30.4 25.9 -0.1 14 14.9 S 13 19 7 10 1012.4 1008.8 0.0
09/12:00am 30.8 26.0 0.2 14 15.0 S 15 19 8 10 1012.6 1009.0 0.0
 
Date/Time
WST
Temp
°C
App
Temp
°C
Dew
Point
°C
Rel
Hum
%
Delta-T
°C
Wind Press
QNH
hPa
Press
MSL
hPa
Rain since
9am
mm
Dir  Spd
km/h
Gust
km/h
Spd
kts
Gust
kts
08/11:30pm 31.6 25.8 -0.1 13 15.6 SSW 20 28 11 15 1012.8 1009.2 0.0
08/11:00pm 32.0 27.2 0.2 13 15.8 SSW 15 24 8 13 1012.9 1009.3 0.0
08/10:30pm 32.5 27.2 1.6 14 15.7 SW 19 32 10 17 1013.0 1009.4 0.0
08/10:00pm 33.2 27.2 1.1 13 16.3 SSW 22 32 12 17 1012.9 1009.3 0.0
08/09:30pm 33.6 28.0 1.4 13 16.4 SW 20 28 11 15 1012.9 1009.3 0.0
08/09:00pm 34.1 29.2 1.8 13 16.7 SW 17 26 9 14 1012.7 1009.1 0.0
08/08:30pm 34.6 29.7 2.2 13 16.9 SW 17 28 9 15 1012.4 1008.8 0.0
08/08:00pm 34.8 30.5 1.2 12 17.2 SW 13 20 7 11 1012.2 1008.6 0.0
08/07:30pm 35.5 30.9 1.8 12 17.5 SW 15 20 8 11 1011.9 1008.3 0.0
08/07:00pm 36.2 31.2 1.1 11 18.1 WSW 17 24 9 13 1011.5 1007.9 0.0
08/06:30pm 36.7 32.1 1.5 11 18.3 SW 15 20 8 11 1011.0 1007.4 0.0
08/06:00pm 37.4 31.9 0.7 10 19.0 WSW 19 28 10 15 1010.8 1007.2 0.0
08/05:30pm 37.9 31.5 1.0 10 19.2 WSW 24 30 13 16 1010.6 1007.0 0.0
08/05:00pm 37.8 32.2 1.0 10 19.2 SSW 20 35 11 19 1010.3 1006.7 0.0
08/04:30pm 38.9 34.7 1.8 10 19.6 W 13 32 7 17 1010.4 1006.8 0.0
08/04:00pm 38.3 32.0 1.3 10 19.4 WSW 24 37 13 20 1010.5 1006.9 0.0
08/03:30pm 39.3 33.5 2.1 10 19.8 W 22 39 12 21 1010.7 1007.1 0.0
08/03:00pm 38.5 33.1 1.5 10 19.5 WSW 19 32 10 17 1011.0 1007.4 0.0
08/02:30pm 38.5 31.4 1.5 10 19.5 WSW 28 41 15 22 1011.3 1007.7 0.0
08/02:26pm 38.8 33.3 1.7 10 19.6 WSW 20 41 11 22 1011.3 1007.7 0.0
08/02:00pm 37.7 31.7 0.9 10 19.1 W 22 41 12 22 1011.8 1008.2 0.0
08/01:30pm 37.7 32.3 2.2 11 18.8 WSW 20 35 11 19 1012.2 1008.6 0.0
08/01:00pm 37.5 32.0 2.1 11 18.7 SW 20 33 11 18 1012.4 1008.8 0.0
08/12:30pm 36.7 31.3 1.5 11 18.3 SSW 19 30 10 16 1012.7 1009.1 0.0
08/12:00pm 35.6 29.7 1.8 12 17.6 SSW 22 41 12 22 1013.1 1009.5 0.0
08/11:30am 36.9 31.6 2.8 12 18.1 S 20 35 11 19 1013.4 1009.9 0.0
08/11:00am 34.8 30.3 2.3 13 16.9 S 15 28 8 15 1014.1 1010.5 0.0
08/10:30am 34.6 29.7 2.2 13 16.9 SSW 17 26 9 14 1014.4 1010.8 0.0
08/10:00am 33.5 28.5 1.3 13 16.4 S 17 28 9 15 1014.6 1011.0 0.0
08/09:30am 33.7 28.9 2.5 14 16.2 SE 17 26 9 14 1014.7 1011.1 0.0
08/09:00am 33.2 28.5 3.1 15 15.8 S 17 28 9 15 1014.9 1011.3 0.0
08/08:30am 31.6 27.2 2.7 16 14.9 S 15 22 8 12 1014.8 1011.2 0.0
08/08:00am 31.2 26.5 3.3 17 14.5 S 17 24 9 13 1014.9 1011.3 0.0
08/07:30am 30.0 25.3 3.1 18 13.8 S 17 24 9 13 1014.8 1011.2 0.0
08/07:00am 30.1 27.4 2.4 17 14.1 SW 6 20 3 11 1014.6 1011.0 0.0
08/06:30am 28.7 25.9 2.1 18 13.3 SW 6 7 3 4 1014.5 1010.9 0.0
08/06:00am 27.3 24.4 1.7 19 12.6 SW 6 7 3 4 1014.0 1010.4 0.0
08/05:30am 26.4 23.0 1.7 20 12.1 SW 9 11 5 6 1013.7 1010.1 0.0
08/05:00am 26.0 22.9 1.3 20 12.0 SW 7 9 4 5 1013.3 1009.8 0.0
08/04:30am 26.9 23.4 1.3 19 12.5 SW 9 11 5 6 1013.2 1009.6 0.0
08/04:00am 27.7 24.3 2.0 19 12.8 SSW 9 15 5 8 1012.9 1009.3 0.0
08/03:30am 28.1 23.9 1.6 18 13.1 SSW 13 15 7 8 1012.7 1009.1 0.0
08/03:00am 29.0 24.8 1.5 17 13.7 SSW 13 17 7 9 1012.7 1009.1 0.0
08/02:30am 29.6 25.1 2.0 17 13.9 SSW 15 20 8 11 1012.6 1009.0 0.0
08/02:00am 30.1 24.7 1.5 16 14.3 SSW 19 26 10 14 1012.7 1009.1 0.0
08/01:30am 30.6 25.1 1.9 16 14.5 S 20 32 11 17 1012.7 1009.1 0.0
08/01:00am 31.2 25.6 1.5 15 15.0 S 20 32 11 17 1012.7 1009.1 0.0
08/12:30am 31.5 26.6 1.8 15 15.1 S 17 22 9 12 1012.7 1009.1 0.0
08/12:00am 32.2 26.8 1.3 14 15.6 SW 19 28 10 15 1012.4 1008.8 0.0
 
Date/Time
WST
Temp
°C
App
Temp
°C
Dew
Point
°C
Rel
Hum
%
Delta-T
°C
Wind Press
QNH
hPa
Press
MSL
hPa
Rain since
9am
mm
Dir  Spd
km/h
Gust
km/h
Spd
kts
Gust
kts
07/11:30pm 32.9 27.3 0.9 13 16.1 SSW 20 30 11 16 1012.2 1008.6 0.0
07/11:00pm 33.7 26.1 0.4 12 16.7 SW 30 48 16 26 1012.1 1008.5 0.0
07/10:53pm 34.0 26.2 -0.6 11 17.1 SW 30 48 16 26 1012.0 1008.4 0.0
07/10:30pm 34.6 28.6 -1.4 10 17.7 SSW 20 28 11 15 1011.8 1008.2 0.0
07/10:00pm 34.7 28.7 -1.4 10 17.7 SW 20 32 11 17 1011.7 1008.1 0.0
07/09:30pm 35.2 29.3 -1.0 10 18.0 SW 20 26 11 14 1011.5 1007.9 0.0
07/09:00pm 35.6 29.0 -0.7 10 18.2 SW 24 33 13 18 1011.2 1007.5 0.0
07/08:30pm 35.9 29.1 -1.9 9 18.6 SW 24 32 13 17 1010.9 1007.3 0.0
07/08:00pm 36.3 29.5 -1.6 9 18.8 SW 24 33 13 18 1010.6 1007.0 0.0
07/07:30pm 36.7 30.1 -2.9 8 19.2 SW 22 30 12 16 1010.1 1006.5 0.0
07/07:00pm 37.3 30.1 -2.4 8 19.5 SW 26 33 14 18 1009.7 1006.1 0.0
07/06:30pm 38.3 30.8 -1.7 8 20.0 WSW 28 41 15 22 1009.3 1005.7 0.0
07/06:00pm 39.1 32.0 -1.1 8 20.4 WSW 26 43 14 23 1008.8 1005.1 0.0
07/05:30pm 39.6 31.9 -2.6 7 21.0 WSW 28 43 15 23 1008.4 1004.8 0.0
07/05:00pm 40.4 34.0 -2.0 7 21.4 WSW 22 28 12 15 1008.2 1004.6 0.0
07/04:30pm 40.8 35.7 -1.7 7 21.6 W 15 35 8 19 1008.1 1004.5 0.0
07/04:00pm 40.7 36.0 -1.8 7 21.6 SW 13 22 7 12 1008.2 1004.6 0.0
07/03:30pm 40.9 34.1 -1.6 7 21.6 WSW 24 35 13 19 1008.2 1004.6 0.0
07/03:00pm 39.4 33.3 -2.7 7 20.9 SW 20 35 11 19 1008.7 1005.0 0.0
07/02:30pm 40.1 34.0 -2.2 7 21.2 WSW 20 32 11 17 1008.9 1005.2 0.0
07/02:00pm 39.7 33.1 -0.7 8 20.7 SW 24 43 13 23 1008.9 1005.2 0.0
07/01:30pm 39.9 34.3 1.1 9 20.4 SW 20 33 11 18 1009.4 1005.8 0.0
07/01:00pm 40.2 35.7 -0.3 8 21.0 W 13 30 7 16 1009.6 1006.0 0.0

Other formats

Comma delimited format used in spreadsheet applications
http://www.bom.gov.au/fwo/IDW60801/IDW60801.94316.axf

JavaScript Object Notation format (JSON) in row-major order
http://www.bom.gov.au/fwo/IDW60801/IDW60801.94316.json

Data quality

Most of these data are generated automatically and are frequently updated. Quality checks on data are not normally performed. It is possible for incorrect values to appear. Refer to information at About Latest Weather Observations and please check the disclaimer before using these data.